createdAt,value
2018-02-04T00:00:50.932Z,2.27
2018-02-04T00:01:50.938Z,2.37
2018-02-04T00:03:44.346Z,2.44
2018-02-04T00:04:44.319Z,2.44
2018-02-04T00:06:37.701Z,2.40
2018-02-04T00:07:37.695Z,2.37
2018-02-04T00:09:31.105Z,2.44
2018-02-04T00:10:31.080Z,2.41
2018-02-04T00:12:24.460Z,2.35
2018-02-04T00:13:24.465Z,2.34
2018-02-04T00:15:17.857Z,2.31
2018-02-04T00:16:17.840Z,2.30
2018-02-04T00:18:11.267Z,2.23
2018-02-04T00:19:11.268Z,2.20
2018-02-04T00:21:04.667Z,2.30
2018-02-04T00:22:04.667Z,2.22
2018-02-04T00:23:58.028Z,2.23
2018-02-04T00:24:58.029Z,2.22
2018-02-04T00:26:51.432Z,2.19
2018-02-04T00:27:51.408Z,2.15
2018-02-04T00:29:44.803Z,2.19
2018-02-04T00:30:44.818Z,2.22
2018-02-04T00:32:38.196Z,2.13
2018-02-04T00:33:38.179Z,2.20
2018-02-04T00:35:31.560Z,2.17
2018-02-04T00:36:31.570Z,2.17
2018-02-04T00:38:24.961Z,2.22
2018-02-04T00:39:24.942Z,2.15
2018-02-04T00:41:19.318Z,2.19
2018-02-04T00:42:19.316Z,2.08
2018-02-04T00:44:12.719Z,1.99
2018-02-04T00:45:12.695Z,2.09
2018-02-04T00:47:06.073Z,2.15
2018-02-04T00:48:06.078Z,2.08
2018-02-04T00:49:59.480Z,2.17
2018-02-04T00:50:59.458Z,2.06
2018-02-04T00:52:52.849Z,2.15
2018-02-04T00:53:52.834Z,2.12
2018-02-04T00:55:46.303Z,2.15
2018-02-04T00:56:46.279Z,2.08
2018-02-04T00:58:39.652Z,2.08
2018-02-04T00:59:39.652Z,2.16
2018-02-04T01:01:34.097Z,2.09
2018-02-04T01:02:34.056Z,2.22
2018-02-04T01:04:27.407Z,2.17
2018-02-04T01:05:27.429Z,2.17
2018-02-04T01:07:20.807Z,2.19
2018-02-04T01:08:20.787Z,2.15
2018-02-04T01:10:14.218Z,2.15
2018-02-04T01:11:14.196Z,2.17
2018-02-04T01:13:07.548Z,2.17
2018-02-04T01:14:07.549Z,2.16
2018-02-04T01:16:00.963Z,2.17
2018-02-04T01:17:00.946Z,2.22
2018-02-04T01:18:54.337Z,2.20
2018-02-04T01:19:54.338Z,2.22
2018-02-04T01:21:47.723Z,2.33
2018-02-04T01:22:47.705Z,2.33
2018-02-04T01:24:41.114Z,2.33
2018-02-04T01:25:41.084Z,2.30
2018-02-04T01:27:34.521Z,2.38
2018-02-04T01:28:34.510Z,2.40
2018-02-04T01:30:27.853Z,2.41
2018-02-04T01:31:27.856Z,2.40
2018-02-04T01:33:21.295Z,2.40
2018-02-04T01:34:21.281Z,2.46
2018-02-04T01:36:14.654Z,2.38
2018-02-04T01:37:14.659Z,2.45
2018-02-04T01:39:09.051Z,2.38
2018-02-04T01:40:09.040Z,2.41
2018-02-04T01:42:02.415Z,2.40
2018-02-04T01:43:02.445Z,2.44
2018-02-04T01:44:55.813Z,2.44
2018-02-04T01:45:55.797Z,2.40
2018-02-04T01:47:49.187Z,2.45
2018-02-04T01:48:49.187Z,2.37
2018-02-04T01:50:42.588Z,2.37
2018-02-04T01:51:42.581Z,2.40
2018-02-04T01:53:35.950Z,2.41
2018-02-04T01:54:35.950Z,2.45
2018-02-04T01:56:29.360Z,2.35
2018-02-04T01:57:29.339Z,2.33
2018-02-04T01:59:22.719Z,2.41
2018-02-04T02:00:22.719Z,2.37
2018-02-04T02:02:16.146Z,2.40
2018-02-04T02:03:16.130Z,2.44
2018-02-04T02:05:09.507Z,2.35
2018-02-04T02:06:09.485Z,2.33
2018-02-04T02:08:02.887Z,2.34
2018-02-04T02:09:02.878Z,2.22
2018-02-04T02:10:56.289Z,2.09
2018-02-04T02:11:56.290Z,2.04
2018-02-04T02:13:49.651Z,2.06
2018-02-04T02:14:49.651Z,1.89
2018-02-04T02:16:43.056Z,1.91
2018-02-04T02:17:43.039Z,1.90
2018-02-04T02:19:36.418Z,2.10
2018-02-04T02:20:36.414Z,2.12
2018-02-04T02:22:29.831Z,2.16
2018-02-04T02:23:29.802Z,2.16
2018-02-04T02:25:23.196Z,2.20
2018-02-04T02:26:23.185Z,2.19
2018-02-04T02:28:16.574Z,2.31
2018-02-04T02:29:16.559Z,2.30
2018-02-04T02:31:09.933Z,2.30
2018-02-04T02:32:09.936Z,2.31
2018-02-04T02:34:03.343Z,2.28
2018-02-04T02:35:03.317Z,2.27
2018-02-04T02:36:56.718Z,2.41
2018-02-04T02:37:56.700Z,2.37
2018-02-04T02:39:50.097Z,2.38
2018-02-04T02:40:50.088Z,2.34
2018-02-04T02:42:43.483Z,2.27
2018-02-04T02:43:43.456Z,2.30
2018-02-04T02:45:36.834Z,2.20
2018-02-04T02:46:36.833Z,2.26
2018-02-04T02:48:30.286Z,2.20
2018-02-04T02:49:30.269Z,2.31
2018-02-04T02:51:23.648Z,2.30
2018-02-04T02:52:23.667Z,2.33
2018-02-04T02:54:17.075Z,2.30
2018-02-04T02:55:17.035Z,2.26
2018-02-04T02:57:10.409Z,2.37
2018-02-04T02:58:10.416Z,2.34
2018-02-04T03:00:03.823Z,2.31
2018-02-04T03:01:03.799Z,2.17
2018-02-04T03:02:57.176Z,2.17
2018-02-04T03:03:57.180Z,2.22
2018-02-04T03:05:51.590Z,2.20
2018-02-04T03:06:51.557Z,2.17
2018-02-04T03:08:44.942Z,2.08
2018-02-04T03:09:44.948Z,2.01
2018-02-04T03:11:38.329Z,1.87
2018-02-04T03:12:38.314Z,1.79
2018-02-04T03:14:31.694Z,1.99
2018-02-04T03:15:31.701Z,1.97
2018-02-04T03:17:25.091Z,1.87
2018-02-04T03:18:25.084Z,1.85
2018-02-04T03:20:18.453Z,1.87
2018-02-04T03:21:18.454Z,1.90
2018-02-04T03:23:11.848Z,1.87
2018-02-04T03:24:11.839Z,1.94
2018-02-04T03:26:05.237Z,1.90
2018-02-04T03:27:05.214Z,1.93
2018-02-04T03:28:58.609Z,1.75
2018-02-04T03:29:58.591Z,1.82
2018-02-04T03:31:52.004Z,1.89
2018-02-04T03:32:51.976Z,1.80
2018-02-04T03:34:45.369Z,1.83
2018-02-04T03:35:45.349Z,1.87
2018-02-04T03:37:38.762Z,1.87
2018-02-04T03:38:38.731Z,1.85
2018-02-04T03:40:32.128Z,1.90
2018-02-04T03:41:32.110Z,1.82
2018-02-04T03:43:25.498Z,1.87
2018-02-04T03:44:25.490Z,1.87
2018-02-04T03:46:18.889Z,1.90
2018-02-04T03:47:18.874Z,1.87
2018-02-04T03:49:12.295Z,1.87
2018-02-04T03:50:12.264Z,1.91
2018-02-04T03:52:05.646Z,1.82
2018-02-04T03:53:05.644Z,1.85
2018-02-04T03:54:59.043Z,1.76
2018-02-04T03:55:59.023Z,1.75
2018-02-04T03:57:53.403Z,1.80
2018-02-04T03:58:53.415Z,1.72
2018-02-04T04:00:46.808Z,1.75
2018-02-04T04:01:46.786Z,1.85
2018-02-04T04:03:40.164Z,1.76
2018-02-04T04:04:40.166Z,1.64
2018-02-04T04:06:33.559Z,1.76
2018-02-04T04:07:33.540Z,1.72
2018-02-04T04:09:26.919Z,1.72
2018-02-04T04:10:26.924Z,1.65
2018-02-04T04:12:20.346Z,1.76
2018-02-04T04:13:20.347Z,1.65
2018-02-04T04:15:14.702Z,1.75
2018-02-04T04:16:14.700Z,1.64
2018-02-04T04:18:08.098Z,1.65
2018-02-04T04:19:08.083Z,1.52
2018-02-04T04:21:01.476Z,1.52
2018-02-04T04:22:01.459Z,1.51
2018-02-04T04:23:54.878Z,1.50
2018-02-04T04:24:54.839Z,1.51
2018-02-04T04:26:48.270Z,1.47
2018-02-04T04:27:48.268Z,1.57
2018-02-04T04:29:41.665Z,1.55
2018-02-04T04:30:41.651Z,1.52
2018-02-04T04:32:35.054Z,1.52
2018-02-04T04:33:35.037Z,1.54
2018-02-04T04:35:28.411Z,1.46
2018-02-04T04:36:28.411Z,1.46
2018-02-04T04:38:21.831Z,1.46
2018-02-04T04:39:21.806Z,1.44
2018-02-04T04:41:15.183Z,1.39
2018-02-04T04:42:15.189Z,1.40
2018-02-04T04:44:08.578Z,1.29
2018-02-04T04:45:08.565Z,1.37
2018-02-04T04:47:01.941Z,1.33
2018-02-04T04:48:01.941Z,1.25
2018-02-04T04:49:55.348Z,1.24
2018-02-04T04:50:55.334Z,1.18
2018-02-04T04:52:48.708Z,1.22
2018-02-04T04:53:48.707Z,1.21
2018-02-04T04:55:42.107Z,1.16
2018-02-04T04:56:42.089Z,1.19
2018-02-04T04:58:35.475Z,1.15
2018-02-04T04:59:35.476Z,1.15
2018-02-04T05:01:28.864Z,1.08
2018-02-04T05:02:28.852Z,1.08
2018-02-04T05:04:22.272Z,1.16
2018-02-04T05:05:22.273Z,1.18
2018-02-04T05:07:15.671Z,1.15
2018-02-04T05:08:15.650Z,1.21
2018-02-04T05:10:09.048Z,1.18
2018-02-04T05:11:09.031Z,1.10
2018-02-04T05:13:02.404Z,1.10
2018-02-04T05:14:02.416Z,1.19
2018-02-04T05:15:55.800Z,1.12
2018-02-04T05:16:55.782Z,1.15
2018-02-04T05:18:49.200Z,1.14
2018-02-04T05:19:49.160Z,1.15
2018-02-04T05:21:42.557Z,1.10
2018-02-04T05:22:42.543Z,1.10
2018-02-04T05:24:35.931Z,1.03
2018-02-04T05:25:35.918Z,1.04
2018-02-04T05:27:29.337Z,1.06
2018-02-04T05:28:29.294Z,1.04
2018-02-04T05:30:22.672Z,0.98
2018-02-04T05:31:22.678Z,1.03
2018-02-04T05:33:16.070Z,0.94
2018-02-04T05:34:16.062Z,0.96
2018-02-04T05:36:09.453Z,0.90
2018-02-04T05:37:09.436Z,0.79
2018-02-04T05:39:02.828Z,0.79
2018-02-04T05:40:02.834Z,0.86
2018-02-04T05:41:56.187Z,0.76
2018-02-04T05:42:56.186Z,0.83
2018-02-04T05:44:49.600Z,0.85
2018-02-04T05:45:49.564Z,0.83
2018-02-04T05:47:42.963Z,0.82
2018-02-04T05:48:42.941Z,0.72
2018-02-04T05:50:36.325Z,0.79
2018-02-04T05:51:36.317Z,0.72
2018-02-04T05:53:29.717Z,0.80
2018-02-04T05:54:29.697Z,0.82
2018-02-04T05:56:23.071Z,0.62
2018-02-04T05:57:23.071Z,0.79
2018-02-04T05:59:16.467Z,0.76
2018-02-04T06:00:16.447Z,0.60
2018-02-04T06:02:09.850Z,0.68
2018-02-04T06:03:09.825Z,0.67
2018-02-04T06:05:03.269Z,0.67
2018-02-04T06:06:03.268Z,0.67
2018-02-04T06:07:56.678Z,0.61
2018-02-04T06:08:56.646Z,0.60
2018-02-04T06:10:50.024Z,0.53
2018-02-04T06:11:50.032Z,0.68
2018-02-04T06:13:43.421Z,0.65
2018-02-04T06:14:43.402Z,0.60
2018-02-04T06:16:36.781Z,0.53
2018-02-04T06:17:36.783Z,0.60
2018-02-04T06:19:30.185Z,0.57
2018-02-04T06:20:30.157Z,0.51
2018-02-04T06:22:23.557Z,0.49
2018-02-04T06:23:23.533Z,0.42
2018-02-04T06:25:16.930Z,0.49
2018-02-04T06:26:16.913Z,0.61
2018-02-04T06:28:11.295Z,0.51
2018-02-04T06:29:11.296Z,0.53
2018-02-04T06:31:04.694Z,0.51
2018-02-04T06:32:04.698Z,0.49
2018-02-04T06:33:58.046Z,0.31
2018-02-04T06:34:58.053Z,0.41
2018-02-04T06:36:51.466Z,0.51
2018-02-04T06:37:51.427Z,0.53
2018-02-04T06:39:44.832Z,0.57
2018-02-04T06:40:44.799Z,0.48
2018-02-04T06:42:38.189Z,0.42
2018-02-04T06:43:38.180Z,0.60
2018-02-04T06:45:32.578Z,0.52
2018-02-04T06:46:32.558Z,0.58
2018-02-04T06:48:25.935Z,0.61
2018-02-04T06:49:25.936Z,0.62
2018-02-04T06:51:20.334Z,0.71
2018-02-04T06:52:20.316Z,0.65
2018-02-04T06:54:13.697Z,0.64
2018-02-04T06:55:13.713Z,0.67
2018-02-04T06:57:07.085Z,0.62
2018-02-04T06:58:07.066Z,0.70
2018-02-04T07:00:00.442Z,0.68
2018-02-04T07:01:00.448Z,0.70
2018-02-04T07:02:53.859Z,0.75
2018-02-04T07:03:53.830Z,0.72
2018-02-04T07:05:47.200Z,0.71
2018-02-04T07:06:47.194Z,0.72
2018-02-04T07:08:40.613Z,0.76
2018-02-04T07:09:40.619Z,0.85
2018-02-04T07:11:33.958Z,0.82
2018-02-04T07:12:33.966Z,0.80
2018-02-04T07:14:27.359Z,0.88
2018-02-04T07:15:27.329Z,0.82
2018-02-04T07:17:20.762Z,0.83
2018-02-04T07:18:20.715Z,0.82
2018-02-04T07:20:14.116Z,0.96
2018-02-04T07:21:14.096Z,0.94
2018-02-04T07:23:07.472Z,0.82
2018-02-04T07:24:07.476Z,0.89
2018-02-04T07:26:00.875Z,0.96
2018-02-04T07:27:00.856Z,0.98
2018-02-04T07:28:54.244Z,1.01
2018-02-04T07:29:54.243Z,1.07
2018-02-04T07:31:47.639Z,1.01
2018-02-04T07:32:47.623Z,1.00
2018-02-04T07:34:41.001Z,1.00
2018-02-04T07:35:41.009Z,1.03
2018-02-04T07:37:34.406Z,1.06
2018-02-04T07:38:34.384Z,1.04
2018-02-04T07:40:27.786Z,1.03
2018-02-04T07:41:27.767Z,1.01
2018-02-04T07:43:21.226Z,1.04
2018-02-04T07:44:21.166Z,1.01
2018-02-04T07:46:14.537Z,1.00
2018-02-04T07:47:14.515Z,1.03
2018-02-04T07:49:07.893Z,1.03
2018-02-04T07:50:07.916Z,1.06
2018-02-04T07:52:01.291Z,1.04
2018-02-04T07:53:01.273Z,1.16
2018-02-04T07:54:54.651Z,1.16
2018-02-04T07:55:54.659Z,1.12
2018-02-04T07:57:48.047Z,1.18
2018-02-04T07:58:48.028Z,1.07
2018-02-04T08:00:41.407Z,1.18
2018-02-04T08:01:41.408Z,1.12
2018-02-04T08:03:34.802Z,1.19
2018-02-04T08:04:34.798Z,1.14
2018-02-04T08:06:28.187Z,1.16
2018-02-04T08:07:28.183Z,1.19
2018-02-04T08:09:21.566Z,1.28
2018-02-04T08:10:21.546Z,1.22
2018-02-04T08:12:14.927Z,1.33
2018-02-04T08:13:14.933Z,1.40
2018-02-04T08:15:08.336Z,1.64
2018-02-04T08:16:08.337Z,1.71
2018-02-04T08:18:01.690Z,1.78
2018-02-04T08:19:01.691Z,1.75
2018-02-04T08:20:55.106Z,1.97
2018-02-04T08:21:55.085Z,1.82
2018-02-04T08:23:48.456Z,2.02
2018-02-04T08:24:48.456Z,1.85
2018-02-04T08:26:41.862Z,1.83
2018-02-04T08:27:41.852Z,1.87
2018-02-04T08:29:35.246Z,1.93
2018-02-04T08:30:35.217Z,1.83
2018-02-04T08:32:28.596Z,1.76
2018-02-04T08:33:28.596Z,1.80
2018-02-04T08:35:21.994Z,1.69
2018-02-04T08:36:21.970Z,1.78
2018-02-04T08:38:15.348Z,1.80
2018-02-04T08:39:15.347Z,1.78
2018-02-04T08:41:08.743Z,1.75
2018-02-04T08:42:08.726Z,1.80
2018-02-04T08:44:02.108Z,1.64
2018-02-04T08:45:02.104Z,1.68
2018-02-04T08:46:55.512Z,1.71
2018-02-04T08:47:55.481Z,1.69
2018-02-04T08:49:48.863Z,1.72
2018-02-04T08:50:48.868Z,1.76
2018-02-04T08:52:42.256Z,1.87
2018-02-04T08:53:42.244Z,1.93
2018-02-04T08:55:35.616Z,2.19
2018-02-04T08:56:35.616Z,2.26
2018-02-04T08:58:29.012Z,2.55
2018-02-04T08:59:28.995Z,2.56
2018-02-04T09:01:22.372Z,2.73
2018-02-04T09:02:22.374Z,2.63
2018-02-04T09:04:15.770Z,2.61
2018-02-04T09:05:15.756Z,2.71
2018-02-04T09:07:09.132Z,2.71
2018-02-04T09:08:09.131Z,2.69
2018-02-04T09:10:02.531Z,2.66
2018-02-04T09:11:02.514Z,2.76
2018-02-04T09:12:55.891Z,2.66
2018-02-04T09:13:55.892Z,2.61
2018-02-04T09:15:49.300Z,2.59
2018-02-04T09:16:49.283Z,2.56
2018-02-04T09:18:42.690Z,2.69
2018-02-04T09:19:42.660Z,2.56
2018-02-04T09:21:36.039Z,2.77
2018-02-04T09:22:36.047Z,2.71
2018-02-04T09:24:29.441Z,2.71
2018-02-04T09:25:29.423Z,2.74
2018-02-04T09:27:22.803Z,2.70
2018-02-04T09:28:22.810Z,2.61
2018-02-04T09:30:16.200Z,2.74
2018-02-04T09:31:16.183Z,2.71
2018-02-04T09:33:09.564Z,2.79
2018-02-04T09:34:09.562Z,2.79
2018-02-04T09:36:02.959Z,2.56
2018-02-04T09:37:02.941Z,2.59
2018-02-04T09:38:56.330Z,2.66
2018-02-04T09:39:56.330Z,2.74
2018-02-04T09:41:49.728Z,2.79
2018-02-04T09:42:49.710Z,2.89
2018-02-04T09:44:43.091Z,3.12
2018-02-04T09:45:43.090Z,3.20
2018-02-04T09:47:36.489Z,3.10
2018-02-04T09:48:36.469Z,3.20
2018-02-04T09:50:29.850Z,3.16
2018-02-04T09:51:29.850Z,3.20
2018-02-04T09:53:23.288Z,3.67
2018-02-04T09:54:23.266Z,4.15
2018-02-04T09:56:16.657Z,4.34
2018-02-04T09:57:16.659Z,4.32
2018-02-04T09:59:10.060Z,4.29
2018-02-04T10:00:10.040Z,4.26
2018-02-04T10:02:03.450Z,4.22
2018-02-04T10:03:03.450Z,4.29
2018-02-04T10:04:56.807Z,4.06
2018-02-04T10:05:56.810Z,4.22
2018-02-04T10:07:50.210Z,4.22
2018-02-04T10:08:50.195Z,4.15
2018-02-04T10:10:43.579Z,4.46
2018-02-04T10:11:43.580Z,4.84
2018-02-04T10:13:36.979Z,6.33
2018-02-04T10:14:36.964Z,6.77
2018-02-04T10:16:30.359Z,6.44
2018-02-04T10:17:30.358Z,6.28
2018-02-04T10:19:23.770Z,6.84
2018-02-04T10:20:23.758Z,6.32
2018-02-04T10:22:17.141Z,6.54
2018-02-04T10:23:17.147Z,6.03
2018-02-04T10:25:10.550Z,5.70
2018-02-04T10:26:10.533Z,5.89
2018-02-04T10:28:03.932Z,7.23
2018-02-04T10:29:03.935Z,7.50
2018-02-04T10:30:57.337Z,7.22
2018-02-04T10:31:57.327Z,7.79
2018-02-04T10:33:50.707Z,6.97
2018-02-04T10:34:50.719Z,7.09
2018-02-04T10:36:44.134Z,7.23
2018-02-04T10:37:44.122Z,8.04
2018-02-04T10:39:37.504Z,8.33
2018-02-04T10:40:37.514Z,8.40
2018-02-04T10:42:30.918Z,8.65
2018-02-04T10:43:30.925Z,8.66
2018-02-04T10:45:24.290Z,9.27
2018-02-04T10:46:24.294Z,9.09
2018-02-04T10:48:17.701Z,8.88
2018-02-04T10:49:17.686Z,8.88
2018-02-04T10:51:11.076Z,9.02
2018-02-04T10:52:11.080Z,9.09
2018-02-04T10:54:04.491Z,8.99
2018-02-04T10:55:04.489Z,9.49
2018-02-04T10:56:57.890Z,10.60
2018-02-04T10:57:57.874Z,10.30
2018-02-04T10:59:51.267Z,9.73
2018-02-04T11:00:51.281Z,10.04
2018-02-04T11:02:44.190Z,9.79
2018-02-04T11:03:44.180Z,8.79
2018-02-04T11:05:37.573Z,9.13
2018-02-04T11:06:37.578Z,8.57
2018-02-04T11:08:30.988Z,9.31
2018-02-04T11:09:30.975Z,9.27
2018-02-04T11:11:24.370Z,10.24
2018-02-04T11:12:24.381Z,9.63
2018-02-04T11:14:17.792Z,7.92
2018-02-04T11:15:17.784Z,8.94
2018-02-04T11:17:11.169Z,8.42
2018-02-04T11:18:11.180Z,7.82
2018-02-04T11:20:04.616Z,9.88
2018-02-04T11:21:04.580Z,10.06
2018-02-04T11:22:57.978Z,10.94
2018-02-04T11:23:57.980Z,11.03
2018-02-04T11:25:51.408Z,11.17
2018-02-04T11:26:51.391Z,11.07
2018-02-04T11:28:44.293Z,11.34
2018-02-04T11:29:44.300Z,11.25
2018-02-04T11:31:37.218Z,9.78
2018-02-04T11:32:37.207Z,9.05
2018-02-04T11:34:30.109Z,8.29
2018-02-04T11:35:30.120Z,7.82
2018-02-04T11:37:23.034Z,8.37
2018-02-04T11:38:23.023Z,8.90
2018-02-04T11:40:16.416Z,9.89
2018-02-04T11:41:16.425Z,10.09
2018-02-04T11:43:09.344Z,9.02
2018-02-04T11:44:09.339Z,8.40
2018-02-04T11:46:02.254Z,7.63
2018-02-04T11:47:02.237Z,6.81
2018-02-04T11:48:55.136Z,6.71
2018-02-04T11:49:55.143Z,6.29
2018-02-04T11:51:48.066Z,7.29
2018-02-04T11:52:48.044Z,7.45
2018-02-04T11:54:41.436Z,8.08
2018-02-04T11:55:41.443Z,8.62
2018-02-04T11:57:34.366Z,8.35
2018-02-04T11:58:34.350Z,8.26
2018-02-04T12:00:27.248Z,7.99
2018-02-04T12:01:27.253Z,7.67
2018-02-04T12:03:20.663Z,7.09
2018-02-04T12:04:20.652Z,6.95
2018-02-04T12:06:13.551Z,6.98
2018-02-04T12:07:13.553Z,6.69
2018-02-04T12:09:06.468Z,6.62
2018-02-04T12:10:06.457Z,6.06
2018-02-04T12:11:59.347Z,5.68
2018-02-04T12:12:59.353Z,5.56
2018-02-04T12:14:52.271Z,5.92
2018-02-04T12:15:52.250Z,5.96
2018-02-04T12:17:45.146Z,5.91
2018-02-04T12:18:45.147Z,5.85
2018-02-04T12:20:38.555Z,5.74
2018-02-04T12:21:38.543Z,5.98
2018-02-04T12:23:31.438Z,6.22
2018-02-04T12:24:31.438Z,6.26
2018-02-04T12:26:24.845Z,6.65
2018-02-04T12:27:24.874Z,6.71
2018-02-04T12:29:18.263Z,6.07
2018-02-04T12:30:18.270Z,5.96
2018-02-04T12:32:11.185Z,5.59
2018-02-04T12:33:11.168Z,5.59
2018-02-04T12:35:04.060Z,5.88
2018-02-04T12:36:04.065Z,6.09
2018-02-04T12:37:56.974Z,6.07
2018-02-04T12:38:56.958Z,6.13
2018-02-04T12:40:50.367Z,6.18
2018-02-04T12:41:50.348Z,6.18
2018-02-04T12:43:43.238Z,6.38
2018-02-04T12:44:43.241Z,6.48
2018-02-04T12:46:36.152Z,6.56
2018-02-04T12:47:36.163Z,6.63
2018-02-04T12:49:29.521Z,6.73
2018-02-04T12:50:29.525Z,6.66
2018-02-04T12:52:22.435Z,6.73
2018-02-04T12:53:22.417Z,6.83
2018-02-04T12:55:15.800Z,6.71
2018-02-04T12:56:15.859Z,6.72
2018-02-04T12:58:08.718Z,6.81
2018-02-04T12:59:08.701Z,6.72
2018-02-04T13:01:01.594Z,6.71
2018-02-04T13:02:01.593Z,6.72
2018-02-04T13:03:55.005Z,6.59
2018-02-04T13:04:54.991Z,6.48
2018-02-04T13:06:47.878Z,6.61
2018-02-04T13:07:47.883Z,6.54
2018-02-04T13:09:41.284Z,6.65
2018-02-04T13:10:41.269Z,6.68
2018-02-04T13:12:34.652Z,6.84
2018-02-04T13:13:34.657Z,6.97
2018-02-04T13:15:27.565Z,6.87
2018-02-04T13:16:27.549Z,6.99
2018-02-04T13:18:20.934Z,7.01
2018-02-04T13:19:20.935Z,7.13
2018-02-04T13:21:13.845Z,7.13
2018-02-04T13:22:13.830Z,7.22
2018-02-04T13:24:06.843Z,7.20
2018-02-04T13:25:06.732Z,7.26
2018-02-04T13:27:00.116Z,7.24
2018-02-04T13:28:00.117Z,7.12
2018-02-04T13:29:53.029Z,6.98
2018-02-04T13:30:53.011Z,7.02
2018-02-04T13:32:46.394Z,7.05
2018-02-04T13:33:46.401Z,7.12
2018-02-04T13:35:39.304Z,7.13
2018-02-04T13:36:39.289Z,7.20
2018-02-04T13:38:32.673Z,7.12
2018-02-04T13:39:32.729Z,7.13
2018-02-04T13:41:25.585Z,7.22
2018-02-04T13:42:25.568Z,7.08
2018-02-04T13:44:18.952Z,7.17
2018-02-04T13:45:18.955Z,7.19
2018-02-04T13:47:11.866Z,7.23
2018-02-04T13:48:11.848Z,7.32
2018-02-04T13:50:04.740Z,7.35
2018-02-04T13:51:04.742Z,7.20
2018-02-04T13:52:58.143Z,7.22
2018-02-04T13:53:58.127Z,7.32
2018-02-04T13:55:51.018Z,7.44
2018-02-04T13:56:51.020Z,7.32
2018-02-04T13:58:43.932Z,7.24
2018-02-04T13:59:43.913Z,7.27
2018-02-04T14:01:37.329Z,7.41
2018-02-04T14:02:37.310Z,7.45
2018-02-04T14:04:30.248Z,7.59
2018-02-04T14:05:30.252Z,7.55
2018-02-04T14:07:23.628Z,7.16
2018-02-04T14:08:23.614Z,6.99
2018-02-04T14:10:16.502Z,7.01
2018-02-04T14:11:16.504Z,7.08
2018-02-04T14:13:09.412Z,7.08
2018-02-04T14:14:09.398Z,7.09
2018-02-04T14:16:02.781Z,7.08
2018-02-04T14:17:02.785Z,7.07
2018-02-04T14:18:56.198Z,6.98
2018-02-04T14:19:56.183Z,7.15
2018-02-04T14:21:49.078Z,7.12
2018-02-04T14:22:49.074Z,7.05
2018-02-04T14:24:42.477Z,7.07
2018-02-04T14:25:42.461Z,7.09
2018-02-04T14:27:35.350Z,6.90
2018-02-04T14:28:35.357Z,6.90
2018-02-04T14:30:28.781Z,6.97
2018-02-04T14:31:28.742Z,6.89
2018-02-04T14:33:21.633Z,6.89
2018-02-04T14:34:21.634Z,6.89
2018-02-04T14:36:14.562Z,6.87
2018-02-04T14:37:14.546Z,6.81
2018-02-04T14:39:07.459Z,6.68
2018-02-04T14:40:07.441Z,6.66
2018-02-04T14:42:00.349Z,6.61
2018-02-04T14:43:00.331Z,6.62
2018-02-04T14:44:53.779Z,6.51
2018-02-04T14:45:53.718Z,6.51
2018-02-04T14:47:47.103Z,6.33
2018-02-04T14:48:47.106Z,6.38
2018-02-04T14:50:40.515Z,6.30
2018-02-04T14:51:40.500Z,6.28
2018-02-04T14:53:33.882Z,6.40
2018-02-04T14:54:33.888Z,6.32
2018-02-04T14:56:27.296Z,6.22
2018-02-04T14:57:27.280Z,6.25
2018-02-04T14:59:20.167Z,6.25
2018-02-04T15:00:20.170Z,6.19
2018-02-04T15:02:13.611Z,6.11
2018-02-04T15:03:13.593Z,6.19
2018-02-04T15:05:06.485Z,6.13
2018-02-04T15:06:06.488Z,6.01
2018-02-04T15:07:59.900Z,5.89
2018-02-04T15:08:59.884Z,5.88
2018-02-04T15:10:53.278Z,5.96
2018-02-04T15:11:53.285Z,5.88
2018-02-04T15:13:46.684Z,5.82
2018-02-04T15:14:46.667Z,5.70
2018-02-04T15:16:40.143Z,5.77
2018-02-04T15:17:40.093Z,5.71
2018-02-04T15:19:33.454Z,5.74
2018-02-04T15:20:33.444Z,5.85
2018-02-04T15:22:26.862Z,5.83
2018-02-04T15:23:26.845Z,5.73
2018-02-04T15:25:20.229Z,5.75
2018-02-04T15:26:20.233Z,5.81
2018-02-04T15:28:13.636Z,5.70
2018-02-04T15:29:13.620Z,5.63
2018-02-04T15:31:07.006Z,5.48
2018-02-04T15:32:07.005Z,5.38
2018-02-04T15:34:00.408Z,5.16
2018-02-04T15:35:00.392Z,5.19
2018-02-04T15:36:53.775Z,5.13
2018-02-04T15:37:53.781Z,5.09
2018-02-04T15:39:47.181Z,4.99
2018-02-04T15:40:47.164Z,4.88
2018-02-04T15:42:40.596Z,4.72
2018-02-04T15:43:40.561Z,4.76
2018-02-04T15:45:33.931Z,4.65
2018-02-04T15:46:33.932Z,4.54
2018-02-04T15:48:27.336Z,4.40
2018-02-04T15:49:27.317Z,4.37
2018-02-04T15:51:20.698Z,4.33
2018-02-04T15:52:20.699Z,4.22
2018-02-04T15:54:14.102Z,4.21
2018-02-04T15:55:14.085Z,4.19
2018-02-04T15:57:07.483Z,4.19
2018-02-04T15:58:07.478Z,4.04
2018-02-04T16:00:00.879Z,4.14
2018-02-04T16:01:00.866Z,4.12
2018-02-04T16:02:54.268Z,4.07
2018-02-04T16:03:54.269Z,4.12
2018-02-04T16:05:47.670Z,4.14
2018-02-04T16:06:47.658Z,4.16
2018-02-04T16:08:41.054Z,4.14
2018-02-04T16:09:41.037Z,4.07
2018-02-04T16:11:34.418Z,4.00
2018-02-04T16:12:34.419Z,3.89
2018-02-04T16:14:27.820Z,3.75
2018-02-04T16:15:27.806Z,3.61
2018-02-04T16:17:21.185Z,3.62
2018-02-04T16:18:21.185Z,3.62
2018-02-04T16:20:14.585Z,3.52
2018-02-04T16:21:14.566Z,3.57
2018-02-04T16:23:07.945Z,3.52
2018-02-04T16:24:07.948Z,3.42
2018-02-04T16:26:01.349Z,3.42
2018-02-04T16:27:01.328Z,3.42
2018-02-04T16:28:54.719Z,3.40
2018-02-04T16:29:54.720Z,3.40
2018-02-04T16:31:48.121Z,3.25
2018-02-04T16:32:48.103Z,3.25
2018-02-04T16:34:41.500Z,3.23
2018-02-04T16:35:41.481Z,3.31
2018-02-04T16:37:34.863Z,3.25
2018-02-04T16:38:34.869Z,3.21
2018-02-04T16:40:28.261Z,3.12
2018-02-04T16:41:28.244Z,3.12
2018-02-04T16:43:21.626Z,3.06
2018-02-04T16:44:21.623Z,3.13
2018-02-04T16:46:15.022Z,2.92
2018-02-04T16:47:15.005Z,2.76
2018-02-04T16:49:08.408Z,2.61
2018-02-04T16:50:08.394Z,2.61
2018-02-04T16:52:01.793Z,2.76
2018-02-04T16:53:01.774Z,2.61
2018-02-04T16:54:56.237Z,2.71
2018-02-04T16:55:56.157Z,2.73
2018-02-04T16:57:49.543Z,2.73
2018-02-04T16:58:49.545Z,2.71
2018-02-04T17:00:42.944Z,2.77
2018-02-04T17:01:42.925Z,2.69
2018-02-04T17:03:36.303Z,2.56
2018-02-04T17:04:36.306Z,2.64
2018-02-04T17:06:29.703Z,2.58
2018-02-04T17:07:29.682Z,2.56
2018-02-04T17:09:23.062Z,2.53
2018-02-04T17:10:23.062Z,2.55
2018-02-04T17:12:16.523Z,2.46
2018-02-04T17:13:16.444Z,2.56
2018-02-04T17:15:09.818Z,2.37
2018-02-04T17:16:09.822Z,2.30
2018-02-04T17:18:03.283Z,2.22
2018-02-04T17:19:03.264Z,2.31
2018-02-04T17:20:56.641Z,2.33
2018-02-04T17:21:56.647Z,2.44
2018-02-04T17:23:50.048Z,2.28
2018-02-04T17:24:50.037Z,2.31
2018-02-04T17:26:42.911Z,2.16
2018-02-04T17:27:42.911Z,2.19
2018-02-04T17:29:36.309Z,2.19
2018-02-04T17:30:36.394Z,2.17
2018-02-04T17:32:29.664Z,2.17
2018-02-04T17:33:29.665Z,2.16
2018-02-04T17:35:22.570Z,2.12
2018-02-04T17:36:22.552Z,2.06
2018-02-04T17:38:15.923Z,1.93
2018-02-04T17:39:15.924Z,1.89
2018-02-04T17:41:09.320Z,1.85
2018-02-04T17:42:09.334Z,1.78
2018-02-04T17:44:02.679Z,1.73
2018-02-04T17:45:02.680Z,1.75
2018-02-04T17:46:55.583Z,1.75
2018-02-04T17:47:55.562Z,1.78
2018-02-04T17:49:48.442Z,1.80
2018-02-04T17:50:48.441Z,1.89
2018-02-04T17:52:41.343Z,1.93
2018-02-04T17:53:41.324Z,1.90
2018-02-04T17:55:34.699Z,1.83
2018-02-04T17:56:34.699Z,1.87
2018-02-04T17:58:27.601Z,1.83
2018-02-04T17:59:27.582Z,1.76
2018-02-04T18:01:21.011Z,1.71
2018-02-04T18:02:20.959Z,1.73
2018-02-04T18:04:13.840Z,1.71
2018-02-04T18:05:13.839Z,1.78
2018-02-04T18:07:07.236Z,1.78
2018-02-04T18:08:07.217Z,1.57
2018-02-04T18:10:00.591Z,1.52
2018-02-04T18:11:00.591Z,1.42
2018-02-04T18:12:53.494Z,1.42
2018-02-04T18:13:53.474Z,1.36
2018-02-04T18:15:46.355Z,1.33
2018-02-04T18:16:46.353Z,1.28
2018-02-04T18:18:39.253Z,1.36
2018-02-04T18:19:39.232Z,1.46
2018-02-04T18:21:32.115Z,1.34
2018-02-04T18:22:32.113Z,1.33
2018-02-04T18:24:25.523Z,1.33
2018-02-04T18:25:25.489Z,1.28
2018-02-04T18:27:18.862Z,1.29
2018-02-04T18:28:18.864Z,1.36
2018-02-04T18:30:12.256Z,1.33
2018-02-04T18:31:12.287Z,1.37
2018-02-04T18:33:05.648Z,1.32
2018-02-04T18:34:05.612Z,1.42
2018-02-04T18:35:58.493Z,1.33
2018-02-04T18:36:58.492Z,1.39
2018-02-04T18:38:51.889Z,1.44
2018-02-04T18:39:51.869Z,1.39
2018-02-04T18:41:44.750Z,1.36
2018-02-04T18:42:44.748Z,1.37
2018-02-04T18:44:37.651Z,1.40
2018-02-04T18:45:37.630Z,1.21
2018-02-04T18:47:30.511Z,1.15
2018-02-04T18:48:30.513Z,1.06
2018-02-04T18:50:23.409Z,1.00
2018-02-04T18:51:23.388Z,1.00
2018-02-04T18:53:16.272Z,0.89
2018-02-04T18:54:16.270Z,0.79
2018-02-04T18:56:09.172Z,0.83
2018-02-04T18:57:09.149Z,0.86
2018-02-04T18:59:02.034Z,0.78
2018-02-04T19:00:02.030Z,0.79
2018-02-04T19:01:55.424Z,0.72
2018-02-04T19:02:55.407Z,0.76
2018-02-04T19:04:48.289Z,0.88
2018-02-04T19:05:48.290Z,0.97
2018-02-04T19:07:41.680Z,0.92
2018-02-04T19:08:41.664Z,0.82
2018-02-04T19:10:34.555Z,0.92
2018-02-04T19:11:34.542Z,0.85
2018-02-04T19:13:27.934Z,0.92